Monroe, Indiana
Current Conditions -  °F | °C
As of 2:54 PM on Thursday 30 Oct 2014 (Local Time) from KFWA Reporting Station
Overcast Overcast  
Wind Chill: 49°   Ceiling: 4200
Heat Index: 49°   Visibility: 10mi
Dew Point: 34°   Wind: 3mph
Humidity: 56%   Direction: 250°WSW
Pressure: 30.1"   Gusts: NA
Location:  40.75°N, 84.94°W
Report Text: KFWA 301854Z 25003KT 10SM OVC042 09/01 A3010 RMK AO2 SLP198 T00940011
Loading
Personal Weather Stations






























Interactive Weather Map
Tropical Storm Tracking
New forecast layout! Learn more

10-Day Weather Forecast

Advertisements
Track Severe Weather on mobile